Time;durP1;ratioP1;P1;durP2;ratioP2;P2;SDS_P1;SDS_P2;PMS_P1;PMS_P2;Temp;Humidity;BMP_temperature;BMP_pressure;BME280_temperature;BME280_humidity;BME280_pressure;Samples;Min_cycle;Max_cycle;Signal;HPM_P1;HPM_P2
2022/10/01 00:02:06;;;;;;;;;;;14.30;99.90;;;;;;5036578;28;20060;-72
2022/10/01 00:04:37;;;;;;;29.08;4.90;;;15.50;99.90;;;;;;5039233;28;19921;-72
2022/10/01 00:07:13;;;;;;;27.02;4.68;;;14.30;99.90;;;;;;5017920;28;20460;-72
2022/10/01 00:09:41;;;;;;;31.00;4.57;;;14.30;99.90;;;;;;5033524;28;20472;-72
2022/10/01 00:12:08;;;;;;;25.65;4.60;;;14.20;99.90;;;;;;5034799;28;20045;-71
2022/10/01 00:14:37;;;;;;;28.20;4.65;;;14.20;99.90;;;;;;5000507;28;20487;-72
2022/10/01 00:17:05;;;;;;;25.23;4.70;;;14.20;99.90;;;;;;5017515;28;20048;-72
2022/10/01 00:19:33;;;;;;;26.08;4.78;;;14.20;99.90;;;;;;5001020;28;20068;-71
2022/10/01 00:22:00;;;;;;;34.10;4.95;;;14.20;99.90;;;;;;5033751;28;20053;-72
2022/10/01 00:24:28;;;;;;;31.40;5.35;;;14.20;99.90;;;;;;5034841;28;20368;-73
2022/10/01 00:26:56;;;;;;;26.33;4.82;;;14.20;99.90;;;;;;5017133;28;20076;-72
2022/10/01 00:29:24;;;;;;;;;;;14.20;99.90;;;;;;5016490;28;20057;-72
2022/10/01 00:31:51;;;;;;;22.80;4.78;;;14.20;99.90;;;;;;5034545;28;19921;-72
2022/10/01 00:34:19;;;;;;;29.15;5.10;;;14.10;99.90;;;;;;5016373;28;20372;-72
2022/10/01 00:36:48;;;;;;;33.50;5.45;;;14.10;99.90;;;;;;5017355;28;20057;-72
2022/10/01 00:39:15;;;;;;;27.13;5.35;;;14.10;99.90;;;;;;5034484;28;20054;-72
2022/10/01 00:41:43;;;;;;;45.15;6.22;;;14.10;99.90;;;;;;5016279;28;20387;-72
2022/10/01 00:44:33;;;;;;;34.45;5.40;;;14.10;99.90;;;;;;5034600;28;20403;-72
2022/10/01 00:47:25;;;;;;;39.38;5.60;;;14.00;99.90;;;;;;5017427;28;20045;-72
2022/10/01 00:50:02;;;;;;;37.58;5.72;;;14.00;99.90;;;;;;4966627;28;20072;-72
2022/10/01 00:52:31;;;;;;;35.35;5.13;;;14.00;99.90;;;;;;5034722;28;20065;-72
2022/10/01 00:55:22;;;;;;;35.47;5.85;;;14.00;99.90;;;;;;5016556;28;20464;-72
2022/10/01 00:57:50;;;;;;;40.72;6.10;;;14.00;99.90;;;;;;5017121;28;20057;-72
2022/10/01 01:00:19;;;;;;;32.47;5.70;;;14.00;99.90;;;;;;5034143;28;20060;-72
2022/10/01 01:02:46;;;;;;;39.85;6.15;;;14.00;99.90;;;;;;5034217;28;20042;-72
2022/10/01 01:05:14;;;;;;;36.38;5.68;;;14.00;99.90;;;;;;5021114;28;20483;-72
2022/10/01 01:07:47;;;;;;;35.00;5.80;;;13.90;99.90;;;;;;5019544;28;20068;-72
2022/10/01 01:10:29;;;;;;;36.03;5.50;;;14.00;99.90;;;;;;5020830;28;20041;-72
2022/10/01 01:13:26;;;;;;;36.47;5.53;;;14.00;99.90;;;;;;5020750;28;20465;-72
2022/10/01 01:16:33;;;;;;;42.33;5.75;;;14.00;99.90;;;;;;5019463;28;20476;-72
2022/10/01 01:19:32;;;;;;;42.33;5.80;;;13.90;99.90;;;;;;4942408;29;20071;-72
2022/10/01 01:22:04;;;;;;;44.65;6.07;;;13.90;99.90;;;;;;5016721;28;20360;-72
2022/10/01 01:25:04;;;;;;;43.70;5.70;;;13.90;99.90;;;;;;5037892;28;20056;-72
2022/10/01 01:28:16;;;;;;;38.30;5.80;;;13.90;99.90;;;;;;4977119;28;20068;-72
2022/10/01 01:30:48;;;;;;;27.85;5.05;;;13.80;99.90;;;;;;5002220;28;20468;-72
2022/10/01 01:33:19;;;;;;;36.50;5.53;;;13.80;99.90;;;;;;5020226;28;20499;-72
2022/10/01 01:36:04;;;;;;;40.63;5.70;;;13.80;99.90;;;;;;5036359;28;20054;-72
2022/10/01 01:38:38;;;;;;;35.08;5.57;;;13.80;99.90;;;;;;5020350;28;20060;-72
2022/10/01 01:41:07;;;;;;;42.20;5.55;;;13.80;99.90;;;;;;5036212;28;20052;-72
2022/10/01 01:43:39;;;;;;;44.35;5.68;;;13.80;99.90;;;;;;5003686;28;20060;-72
2022/10/01 01:46:09;;;;;;;30.30;4.90;;;13.80;99.90;;;;;;5037383;28;20041;-72
2022/10/01 01:48:40;;;;;;;43.38;5.32;;;13.80;99.90;;;;;;5018613;28;20053;-72
2022/10/01 01:51:16;;;;;;;34.58;5.55;;;13.80;99.90;;;;;;4987928;28;20053;-72
2022/10/01 01:53:44;;;;;;;37.97;5.57;;;13.70;99.90;;;;;;5037179;28;20041;-72
2022/10/01 01:56:12;;;;;;;39.13;6.18;;;13.70;99.90;;;;;;5002245;28;20041;-72
2022/10/01 01:58:40;;;;;;;35.40;6.10;;;13.70;99.90;;;;;;5036948;28;20054;-72
2022/10/01 02:01:37;;;;;;;42.13;6.07;;;13.70;99.90;;;;;;5035844;28;20060;-72
2022/10/01 02:04:32;;;;;;;34.65;5.40;;;13.70;99.90;;;;;;5039368;28;20387;-72
2022/10/01 02:07:00;;;;;;;42.55;5.65;;;13.70;99.90;;;;;;5056899;28;20364;-72
2022/10/01 02:09:43;;;;;;;40.65;5.68;;;13.70;99.90;;;;;;5054794;28;20376;-72
2022/10/01 02:12:45;;;;;;;40.35;5.80;;;13.70;99.90;;;;;;5056898;28;20087;-72
2022/10/01 02:15:39;;;;;;;39.25;6.07;;;13.60;99.90;;;;;;5037685;28;20060;-72
2022/10/01 02:18:52;;;;;;;45.08;6.70;;;13.60;99.90;;;;;;5055958;28;20045;-72
2022/10/01 02:21:27;;;;;;;43.90;6.43;;;13.50;99.90;;;;;;5054663;28;20045;-72
2022/10/01 02:24:08;;;;;;;45.08;7.47;;;13.50;99.90;;;;;;5057051;28;20048;-72
2022/10/01 02:26:37;;;;;;;53.17;7.50;;;13.50;99.90;;;;;;5056793;28;20063;-72
2022/10/01 02:29:10;;;;;;;53.67;8.05;;;13.40;99.90;;;;;;5038107;28;20053;-72
2022/10/01 02:31:38;;;;;;;44.78;7.80;;;13.40;99.90;;;;;;5056520;28;20489;-72
2022/10/01 02:34:07;;;;;;;49.92;7.28;;;13.30;99.90;;;;;;5055618;28;20056;-72
2022/10/01 02:36:41;;;;;;;51.47;7.40;;;13.30;99.90;;;;;;5055903;28;20045;-72
2022/10/01 02:39:12;;;;;;;40.05;7.00;;;13.20;99.90;;;;;;5055332;28;20056;-72
2022/10/01 02:41:42;;;;;;;40.80;7.05;;;13.20;99.90;;;;;;5054393;28;20056;-72
2022/10/01 02:44:14;;;;;;;46.13;7.00;;;13.20;99.90;;;;;;5056094;28;20048;-72
2022/10/01 02:46:45;;;;;;;48.88;7.20;;;13.10;99.90;;;;;;5055806;28;20048;-72
2022/10/01 02:49:13;;;;;;;44.50;6.88;;;13.10;99.90;;;;;;5055020;28;20045;-72
2022/10/01 02:52:10;;;;;;;45.97;6.93;;;13.00;99.90;;;;;;5055303;28;20044;-72
2022/10/01 02:54:49;;;;;;;40.43;6.97;;;13.00;99.90;;;;;;5021690;28;20049;-72
2022/10/01 02:57:26;;;;;;;37.70;6.43;;;13.00;99.90;;;;;;5055985;28;20278;-72
2022/10/01 02:59:57;;;;;;;45.33;6.68;;;13.00;99.90;;;;;;5055910;28;20040;-72
2022/10/01 03:02:27;;;;;;;54.00;6.97;;;12.90;99.90;;;;;;5055030;28;20049;-72
2022/10/01 03:04:56;;;;;;;39.58;6.00;;;12.90;99.90;;;;;;5037060;28;20045;-72
2022/10/01 03:07:25;;;;;;;54.75;7.32;;;12.90;99.90;;;;;;5034553;28;20050;-72
2022/10/01 03:09:53;;;;;;;50.53;6.60;;;12.80;99.90;;;;;;5036167;28;20056;-71
2022/10/01 03:12:22;;;;;;;51.78;6.80;;;12.80;99.90;;;;;;5018387;28;20052;-73
2022/10/01 03:14:50;;;;;;;43.00;6.35;;;12.70;99.90;;;;;;5034640;28;20045;-72
2022/10/01 03:17:18;;;;;;;45.60;6.88;;;12.70;99.90;;;;;;5035522;28;20037;-72
2022/10/01 03:19:45;;;;;;;61.17;7.55;;;12.70;99.90;;;;;;5035366;28;20053;-72
2022/10/01 03:22:17;;;;;;;57.88;7.28;;;12.70;99.90;;;;;;5034358;28;20053;-72
2022/10/01 03:24:44;;;;;;;45.35;7.05;;;12.70;99.90;;;;;;5017907;28;20050;-72
2022/10/01 03:27:12;;;;;;;52.95;7.32;;;12.60;99.90;;;;;;5017980;28;20053;-72
2022/10/01 03:29:39;;;;;;;44.70;6.95;;;12.60;99.90;;;;;;5034192;28;20042;-72
2022/10/01 03:32:07;;;;;;;56.10;7.78;;;12.60;99.90;;;;;;5035676;28;20479;-72
2022/10/01 03:34:34;;;;;;;65.45;7.88;;;12.50;99.90;;;;;;5017451;28;20053;-72
2022/10/01 03:37:02;;;;;;;57.20;7.50;;;12.50;99.90;;;;;;5017892;28;20045;-72
2022/10/01 03:39:30;;;;;;;55.58;7.85;;;12.50;99.90;;;;;;5018047;28;20372;-72
2022/10/01 03:41:58;;;;;;;53.13;7.70;;;12.50;99.90;;;;;;5034118;28;20049;-72
2022/10/01 03:44:27;;;;;;;64.57;7.47;;;12.50;99.90;;;;;;5035292;28;20049;-72
2022/10/01 03:46:54;;;;;;;64.22;7.97;;;12.50;99.90;;;;;;5034914;28;20491;-72
2022/10/01 03:49:22;;;;;;;62.70;7.32;;;12.40;99.90;;;;;;5016468;28;20052;-72
2022/10/01 03:51:50;;;;;;;55.35;7.00;;;12.50;99.90;;;;;;5034883;28;20045;-72
2022/10/01 03:54:19;;;;;;;54.75;7.57;;;12.50;99.90;;;;;;5016826;28;20041;-72
2022/10/01 03:56:47;;;;;;;57.63;7.50;;;12.50;99.90;;;;;;5017797;28;20448;-72
2022/10/01 03:59:15;;;;;;;52.13;6.82;;;12.50;99.90;;;;;;5017432;28;20045;-73
2022/10/01 04:01:42;;;;;;;56.60;6.57;;;12.90;99.90;;;;;;5033785;28;20042;-72
2022/10/01 04:04:10;;;;;;;52.85;6.60;;;12.40;99.90;;;;;;5034936;28;20037;-72
2022/10/01 04:06:37;;;;;;;45.25;5.85;;;12.40;99.90;;;;;;5034734;28;20061;-72
2022/10/01 04:09:05;;;;;;;60.45;6.20;;;12.40;99.90;;;;;;5033797;28;20056;-72
2022/10/01 04:11:32;;;;;;;54.90;6.65;;;12.30;99.90;;;;;;5001407;28;20460;-72
2022/10/01 04:14:00;;;;;;;46.50;5.32;;;12.30;99.90;;;;;;5034685;28;20038;-72
2022/10/01 04:16:28;;;;;;;42.35;5.63;;;12.30;99.90;;;;;;5034938;28;20038;-72
2022/10/01 04:18:55;;;;;;;52.13;5.47;;;12.30;99.90;;;;;;5017767;28;20045;-72
2022/10/01 04:21:23;;;;;;;37.85;4.72;;;12.30;99.90;;;;;;5033505;28;20045;-72
2022/10/01 04:23:51;;;;;;;37.15;5.25;;;12.20;99.90;;;;;;5034683;28;20045;-72
2022/10/01 04:26:19;;;;;;;38.78;5.50;;;12.20;99.90;;;;;;5034683;28;20361;-72
2022/10/01 04:28:46;;;;;;;46.33;5.25;;;12.20;99.90;;;;;;5016301;28;20371;-72
2022/10/01 04:31:23;;;;;;;44.60;4.90;;;12.20;99.90;;;;;;5034385;28;20056;-72
2022/10/01 04:33:56;;;;;;;49.72;5.47;;;12.10;99.90;;;;;;5034474;28;20049;-72
2022/10/01 04:36:24;;;;;;;44.45;5.45;;;12.20;99.90;;;;;;5033999;28;20049;-72
2022/10/01 04:38:53;;;;;;;40.85;5.20;;;12.10;99.90;;;;;;5038618;28;20041;-72
2022/10/01 04:41:29;;;;;;;55.47;5.65;;;12.10;99.90;;;;;;5004147;28;20057;-72
2022/10/01 04:43:58;;;;;;;48.25;5.53;;;12.10;99.90;;;;;;5004770;28;20073;-72
2022/10/01 04:46:25;;;;;;;44.03;5.28;;;12.00;99.90;;;;;;5038746;28;20053;-72
2022/10/01 04:48:53;;;;;;;48.97;5.75;;;12.00;99.90;;;;;;5037339;28;20053;-72
2022/10/01 04:51:20;;;;;;;50.58;5.50;;;12.00;99.90;;;;;;5038333;28;20052;-72
2022/10/01 04:53:48;;;;;;;56.45;5.53;;;11.60;99.90;;;;;;5038442;28;20052;-72
2022/10/01 04:56:15;;;;;;;50.42;5.70;;;11.90;99.90;;;;;;5037200;28;20060;-72
2022/10/01 04:58:43;;;;;;;55.50;6.10;;;11.90;99.90;;;;;;5038118;28;20045;-72
2022/10/01 05:01:11;;;;;;;48.95;5.80;;;11.90;99.90;;;;;;5036871;28;20045;-72
2022/10/01 05:03:38;;;;;;;57.78;6.32;;;11.90;99.90;;;;;;5036122;28;20060;-72
2022/10/01 05:06:06;;;;;;;50.28;5.88;;;11.80;99.90;;;;;;4984818;28;20058;-72
2022/10/01 05:08:33;;;;;;;56.08;6.28;;;11.80;99.90;;;;;;5017479;28;20057;-72
2022/10/01 05:11:01;;;;;;;51.40;5.68;;;11.80;99.90;;;;;;5000850;28;20050;-72
2022/10/01 05:13:30;;;;;;;;;;;11.80;99.90;;;;;;5018700;28;20469;-73
2022/10/01 05:15:58;;;;;;;50.67;5.95;;;11.80;99.90;;;;;;5000029;28;19928;-72
2022/10/01 05:18:25;;;;;;;54.03;6.15;;;11.70;99.90;;;;;;5017890;28;20046;-72
2022/10/01 05:20:53;;;;;;;52.75;6.05;;;11.70;99.90;;;;;;5016883;28;20061;-73
2022/10/01 05:23:20;;;;;;;46.83;5.60;;;11.90;99.90;;;;;;5017974;28;20054;-72
2022/10/01 05:25:48;;;;;;;58.05;6.68;;;11.70;99.90;;;;;;5001223;28;20373;-72
2022/10/01 05:28:15;;;;;;;68.20;7.13;;;11.80;99.90;;;;;;4999569;28;20404;-72
2022/10/01 05:30:49;;;;;;;59.65;6.85;;;11.80;99.90;;;;;;5017905;28;20453;-72
2022/10/01 05:33:18;;;;;;;67.80;6.63;;;11.80;99.90;;;;;;4985230;28;20044;-72
2022/10/01 05:35:45;;;;;;;63.13;6.22;;;11.80;99.90;;;;;;4999758;28;20046;-72
2022/10/01 05:38:13;;;;;;;61.70;6.53;;;11.70;99.90;;;;;;5000861;28;20061;-71
2022/10/01 05:40:44;;;;;;;54.13;6.13;;;11.70;99.90;;;;;;5000291;28;20069;-72
2022/10/01 05:43:12;;;;;;;54.15;5.68;;;11.70;99.90;;;;;;5017516;28;20045;-72
2022/10/01 05:45:40;;;;;;;;;;;11.70;99.90;;;;;;5017900;28;20376;-73
2022/10/01 05:48:08;;;;;;;63.25;6.70;;;11.70;99.90;;;;;;5015645;28;20352;-73
2022/10/01 05:50:39;;;;;;;59.42;6.18;;;11.70;99.90;;;;;;5017391;28;20060;-72
2022/10/01 05:53:09;;;;;;;58.58;6.32;;;11.70;99.90;;;;;;4984127;28;20077;-72
2022/10/01 05:55:36;;;;;;;64.18;6.90;;;11.70;99.90;;;;;;5016333;28;20495;-72
2022/10/01 05:58:06;;;;;;;64.03;7.25;;;11.70;99.90;;;;;;5000196;28;20064;-72
2022/10/01 06:00:34;;;;;;;71.32;7.03;;;11.70;99.90;;;;;;5000333;28;20053;-72
2022/10/01 06:03:03;;;;;;;65.18;6.65;;;11.70;99.90;;;;;;5016078;28;20049;-72
2022/10/01 06:05:33;;;;;;;65.95;6.50;;;11.70;99.90;;;;;;5017185;28;20376;-73
2022/10/01 06:08:03;;;;;;;77.93;7.00;;;11.70;99.90;;;;;;4998994;28;20053;-72
2022/10/01 06:10:30;;;;;;;76.97;7.60;;;11.70;99.90;;;;;;4999633;28;20065;-72
2022/10/01 06:13:00;;;;;;;65.28;7.00;;;11.70;99.90;;;;;;4983994;28;20042;-72
2022/10/01 06:15:28;;;;;;;60.50;6.20;;;11.70;99.90;;;;;;5016042;28;20045;-72
2022/10/01 06:18:00;;;;;;;;;;;12.30;99.90;;;;;;5017351;28;20050;-72
2022/10/01 06:20:27;;;;;;;58.90;6.13;;;11.70;99.90;;;;;;4999962;28;19921;-72
2022/10/01 06:22:56;;;;;;;64.07;6.30;;;11.70;99.90;;;;;;5015896;28;20053;-72
2022/10/01 06:25:27;;;;;;;63.20;6.50;;;11.70;99.90;;;;;;5017183;28;20045;-72
2022/10/01 06:27:56;;;;;;;55.08;6.00;;;11.70;99.90;;;;;;5016010;28;20053;-72
2022/10/01 06:30:29;;;;;;;53.67;5.80;;;11.80;99.90;;;;;;5016753;28;20042;-72
2022/10/01 06:33:01;;;;;;;63.58;6.80;;;11.70;99.90;;;;;;5016947;28;20460;-72
2022/10/01 06:35:30;;;;;;;60.45;6.28;;;11.70;99.90;;;;;;5015422;28;20049;-71
2022/10/01 06:38:00;;;;;;;56.25;6.68;;;11.90;99.90;;;;;;5016908;28;20053;-72
2022/10/01 06:40:28;;;;;;;52.90;6.72;;;11.80;99.90;;;;;;4982890;28;20057;-72
2022/10/01 06:42:57;;;;;;;50.00;6.07;;;11.80;99.90;;;;;;5015234;28;20042;-72
2022/10/01 06:45:26;;;;;;;63.60;6.10;;;11.80;99.90;;;;;;4999297;28;20046;-72
2022/10/01 06:47:55;;;;;;;56.42;6.07;;;11.80;99.90;;;;;;5007239;28;20464;-72
2022/10/01 06:50:24;;;;;;;62.67;6.60;;;11.90;99.90;;;;;;5036637;28;20041;-72
2022/10/01 06:52:51;;;;;;;62.25;6.22;;;11.90;99.90;;;;;;5035916;28;20064;-72
2022/10/01 06:55:28;;;;;;;60.00;6.40;;;11.90;99.90;;;;;;5017491;28;20041;-72
2022/10/01 06:58:06;;;;;;;54.53;5.72;;;11.90;99.90;;;;;;5036066;28;20052;-72
2022/10/01 07:00:37;;;;;;;52.67;6.20;;;11.90;99.90;;;;;;5017871;28;20050;-72
2022/10/01 07:03:09;;;;;;;54.53;6.15;;;12.00;99.90;;;;;;5034513;28;20038;-72
2022/10/01 07:05:38;;;;;;;54.90;6.32;;;12.00;99.90;;;;;;5018244;28;20042;-72
2022/10/01 07:08:06;;;;;;;62.42;6.03;;;12.10;99.90;;;;;;5016828;28;20053;-72
2022/10/01 07:10:34;;;;;;;;;;;12.10;99.90;;;;;;5018474;28;20507;-72
2022/10/01 07:13:09;;;;;;;55.40;6.03;;;12.10;99.90;;;;;;5018161;28;19921;-72
2022/10/01 07:15:38;;;;;;;51.30;6.28;;;12.10;99.90;;;;;;5034046;28;20053;-72
2022/10/01 07:18:08;;;;;;;59.83;6.65;;;12.20;99.90;;;;;;5035178;28;20058;-71
2022/10/01 07:20:38;;;;;;;51.30;5.95;;;12.20;99.90;;;;;;5018005;28;20045;-72
2022/10/01 07:23:10;;;;;;;51.50;6.22;;;12.20;99.90;;;;;;5017432;28;20060;-71
2022/10/01 07:25:39;;;;;;;55.65;5.97;;;12.30;99.90;;;;;;5035101;28;20045;-73
2022/10/01 07:28:14;;;;;;;51.88;6.03;;;12.20;99.90;;;;;;5033987;28;20136;-72
2022/10/01 07:30:46;;;;;;;49.42;5.90;;;12.30;99.90;;;;;;5017506;28;20046;-72
2022/10/01 07:33:17;;;;;;;46.35;6.22;;;12.40;99.90;;;;;;5034944;28;20056;-72
2022/10/01 07:35:46;;;;;;;59.40;6.70;;;12.60;99.90;;;;;;5016612;28;20079;-73
2022/10/01 07:38:14;;;;;;;47.40;6.05;;;12.40;99.90;;;;;;5034948;28;20448;-72
2022/10/01 07:40:42;;;;;;;61.97;6.80;;;12.40;99.90;;;;;;5034043;28;20124;-72
2022/10/01 07:43:09;;;;;;;62.22;7.03;;;12.50;99.90;;;;;;5034739;28;20061;-72
2022/10/01 07:45:37;;;;;;;56.05;7.53;;;12.50;99.90;;;;;;5035151;28;20057;-72
2022/10/01 07:48:06;;;;;;;50.75;5.88;;;12.60;99.90;;;;;;5016725;28;20064;-72
2022/10/01 07:50:34;;;;;;;44.03;5.47;;;12.60;99.90;;;;;;5001200;28;20057;-72
2022/10/01 07:53:02;;;;;;;50.28;6.45;;;12.70;99.90;;;;;;5034997;28;20046;-72
2022/10/01 07:55:31;;;;;;;;;;;12.80;99.90;;;;;;5034357;28;20049;-72
2022/10/01 07:58:00;;;;;;;55.42;5.82;;;12.80;99.90;;;;;;5035005;28;20332;-72
2022/10/01 08:00:30;;;;;;;45.42;5.85;;;12.90;99.90;;;;;;5034754;28;20041;-72
2022/10/01 08:02:58;;;;;;;45.45;5.25;;;12.90;99.90;;;;;;5033717;28;20048;-72
2022/10/01 08:05:29;;;;;;;42.03;5.60;;;12.90;99.90;;;;;;5035208;28;20057;-72
2022/10/01 08:07:59;;;;;;;42.63;5.22;;;13.00;99.90;;;;;;5016769;28;20050;-72
2022/10/01 08:10:28;;;;;;;40.65;5.63;;;13.00;99.90;;;;;;5034758;28;20056;-72
2022/10/01 08:13:07;;;;;;;43.10;5.53;;;13.00;99.90;;;;;;5034404;28;20048;-72
2022/10/01 08:15:35;;;;;;;44.13;5.07;;;13.00;99.90;;;;;;5033527;28;20045;-72
2022/10/01 08:18:03;;;;;;;43.17;4.90;;;13.10;99.90;;;;;;5018057;28;20071;-72
2022/10/01 08:20:31;;;;;;;31.95;4.72;;;13.10;99.90;;;;;;5017274;28;20042;-72
2022/10/01 08:23:07;;;;;;;31.38;5.20;;;13.20;99.90;;;;;;5016354;28;20045;-72
2022/10/01 08:25:35;;;;;;;30.58;4.18;;;13.20;99.90;;;;;;5034592;28;20049;-72
2022/10/01 08:28:03;;;;;;;43.28;4.72;;;13.30;99.90;;;;;;5033542;28;20376;-72
2022/10/01 08:30:31;;;;;;;44.22;5.00;;;13.40;99.90;;;;;;5034538;28;20068;-72
2022/10/01 08:33:00;;;;;;;34.90;4.88;;;13.40;99.90;;;;;;5017682;28;20060;-72
2022/10/01 08:35:29;;;;;;;33.22;4.82;;;13.50;99.90;;;;;;5016410;28;20053;-72
2022/10/01 08:38:06;;;;;;;41.72;4.90;;;13.50;99.90;;;;;;5034425;28;20056;-72
2022/10/01 08:40:40;;;;;;;30.13;4.38;;;13.50;99.90;;;;;;5034638;28;20045;-72
2022/10/01 08:43:35;;;;;;;31.33;4.22;;;13.60;99.90;;;;;;5031696;28;20049;-72
2022/10/01 08:46:06;;;;;;;34.33;4.20;;;13.60;99.90;;;;;;5017237;28;20049;-72
2022/10/01 08:48:57;;;;;;;30.63;4.80;;;13.70;99.90;;;;;;5033435;28;20376;-72
2022/10/01 08:51:25;;;;;;;31.25;4.30;;;13.70;99.90;;;;;;5034852;28;20049;-72
2022/10/01 08:53:58;;;;;;;31.90;4.30;;;13.90;99.90;;;;;;5034804;28;20054;-72
2022/10/01 08:56:36;;;;;;;29.02;4.00;;;13.90;99.90;;;;;;5033343;28;20049;-74
2022/10/01 08:59:17;;;;;;;38.38;4.80;;;14.00;99.90;;;;;;5026007;28;20042;-71
2022/10/01 09:01:44;;;;;;;30.67;4.40;;;14.00;99.90;;;;;;5014716;28;20057;-72
2022/10/01 09:04:12;;;;;;;24.52;4.05;;;14.00;99.90;;;;;;5033966;28;20078;-72
2022/10/01 09:06:39;;;;;;;22.42;3.97;;;14.00;99.90;;;;;;5031917;28;20472;-71
2022/10/01 09:09:19;;;;;;;31.25;4.40;;;14.10;99.90;;;;;;5012270;28;20050;-71
2022/10/01 09:12:34;;;;;;;27.15;3.90;;;14.20;99.90;;;;;;5013620;28;20042;-72
2022/10/01 09:15:49;;;;;;;24.85;3.67;;;14.30;99.90;;;;;;4940602;28;20061;-74
2022/10/01 09:18:25;;;;;;;;;;;14.40;99.90;;;;;;4984669;28;20061;-74
2022/10/01 09:21:00;;;;;;;24.90;3.60;;;14.50;99.90;;;;;;4996506;28;20234;-74
2022/10/01 09:23:30;;;;;;;21.13;3.10;;;14.60;99.90;;;;;;4997960;28;20053;-72
2022/10/01 09:25:58;;;;;;;19.40;3.72;;;14.60;99.90;;;;;;5001008;28;20141;-72
2022/10/01 09:28:33;;;;;;;20.55;2.95;;;14.60;99.90;;;;;;5016668;28;20053;-72
2022/10/01 09:31:28;;;;;;;25.58;3.53;;;14.70;99.90;;;;;;5001319;28;20049;-72
2022/10/01 09:34:12;;;;;;;27.67;3.80;;;14.90;99.90;;;;;;5001012;28;20042;-72
2022/10/01 09:36:51;;;;;;;17.63;3.20;;;15.00;99.90;;;;;;5000617;28;20050;-72
2022/10/01 09:39:38;;;;;;;20.00;3.40;;;15.20;99.90;;;;;;5000182;28;20052;-72
2022/10/01 09:42:05;;;;;;;24.00;3.33;;;15.30;99.90;;;;;;5016799;28;20061;-72
2022/10/01 09:44:34;;;;;;;23.02;3.72;;;15.40;99.90;;;;;;5000528;28;20050;-72
2022/10/01 09:47:01;;;;;;;;;;;15.40;99.90;;;;;;5000886;28;20065;-72
2022/10/01 09:49:38;;;;;;;24.65;3.83;;;15.50;99.90;;;;;;5016394;28;19929;-72
2022/10/01 09:52:25;;;;;;;21.53;3.37;;;15.60;99.90;;;;;;5017813;28;20046;-72
2022/10/01 09:54:59;;;;;;;25.77;3.78;;;15.60;99.90;;;;;;4999239;28;20042;-72
2022/10/01 09:57:46;;;;;;;22.13;3.40;;;15.70;99.90;;;;;;5000144;28;20357;-72
2022/10/01 10:00:17;;;;;;;18.23;3.28;;;15.80;99.90;;;;;;4984459;28;20053;-73
2022/10/01 10:02:46;;;;;;;20.02;3.30;;;15.90;99.90;;;;;;5019713;28;20353;-72
2022/10/01 10:05:25;;;;;;;23.30;3.97;;;16.00;99.90;;;;;;5036951;28;20384;-72
2022/10/01 10:08:15;;;;;;;17.80;3.17;;;16.00;99.90;;;;;;5035733;28;20053;-72
2022/10/01 10:10:51;;;;;;;24.50;3.40;;;15.90;99.90;;;;;;5003783;28;20294;-72
2022/10/01 10:13:34;;;;;;;17.70;3.33;;;16.10;99.90;;;;;;5019375;28;20053;-72
2022/10/01 10:16:16;;;;;;;19.75;3.50;;;16.10;99.90;;;;;;5035653;28;20046;-72
2022/10/01 10:18:51;;;;;;;26.25;3.70;;;16.10;99.90;;;;;;5019923;28;20041;-72
2022/10/01 10:21:26;;;;;;;20.00;3.40;;;16.10;99.90;;;;;;5035850;28;20077;-72
2022/10/01 10:23:59;;;;;;;21.27;3.30;;;16.00;99.90;;;;;;5037060;28;20479;-72
2022/10/01 10:26:37;;;;;;;19.95;4.03;;;16.10;99.90;;;;;;5036672;28;20079;-73
2022/10/01 10:29:23;;;;;;;20.67;3.33;;;16.10;99.90;;;;;;5018269;28;20049;-72
2022/10/01 10:31:52;;;;;;;21.98;3.50;;;16.10;99.90;;;;;;5036546;28;20049;-73
2022/10/01 10:34:39;;;;;;;20.83;3.85;;;16.10;99.90;;;;;;5035199;28;20046;-72
2022/10/01 10:37:27;;;;;;;19.05;3.25;;;16.10;99.90;;;;;;5036236;28;20356;-73
2022/10/01 10:39:56;;;;;;;17.63;3.28;;;16.10;99.90;;;;;;5036393;28;20360;-73
2022/10/01 10:42:24;;;;;;;19.65;3.67;;;16.10;99.90;;;;;;5035291;28;20060;-73
2022/10/01 10:44:55;;;;;;;22.52;3.28;;;16.00;99.90;;;;;;5036564;28;20049;-73
2022/10/01 10:47:27;;;;;;;18.77;3.33;;;16.00;99.90;;;;;;5017769;28;20049;-73
2022/10/01 10:50:05;;;;;;;22.13;3.45;;;16.00;99.90;;;;;;5036801;28;20042;-72
2022/10/01 10:52:36;;;;;;;18.30;3.25;;;16.00;99.90;;;;;;5036531;28;20045;-73
2022/10/01 10:55:22;;;;;;;17.17;3.00;;;16.00;99.90;;;;;;5017810;28;20050;-74
2022/10/01 10:57:51;;;;;;;20.33;3.45;;;16.10;99.90;;;;;;5036042;28;20041;-70
2022/10/01 11:00:25;;;;;;;18.75;3.47;;;16.10;99.90;;;;;;5019594;28;20046;-73
2022/10/01 11:03:00;;;;;;;15.73;2.88;;;16.20;99.90;;;;;;5034661;28;20068;-74
2022/10/01 11:05:31;;;;;;;18.27;3.53;;;16.30;99.90;;;;;;5035906;28;20499;-74
2022/10/01 11:08:02;;;;;;;18.60;3.60;;;16.30;99.90;;;;;;5034602;28;20060;-72
2022/10/01 11:10:36;;;;;;;18.08;3.25;;;16.40;99.90;;;;;;5002065;28;20049;-72
2022/10/01 11:13:25;;;;;;;15.95;3.15;;;16.60;99.90;;;;;;5018419;28;20046;-73
2022/10/01 11:16:27;;;;;;;21.55;3.47;;;16.60;99.90;;;;;;5017502;28;20045;-72
2022/10/01 11:19:22;;;;;;;17.55;3.03;;;16.70;99.90;;;;;;5018213;28;20376;-72
2022/10/01 11:22:37;;;;;;;15.15;3.00;;;16.80;99.90;;;;;;5000926;28;20064;-73
2022/10/01 11:25:43;;;;;;;16.98;3.10;;;16.80;99.90;;;;;;4999063;28;20045;-72
2022/10/01 11:28:42;;;;;;;22.83;3.50;;;16.80;99.90;;;;;;5034685;28;20041;-73
2022/10/01 11:31:15;;;;;;;20.40;3.15;;;16.70;99.90;;;;;;5035256;28;20045;-72
2022/10/01 11:34:13;;;;;;;17.02;3.60;;;16.70;99.90;;;;;;5018605;28;20046;-73
2022/10/01 11:37:01;;;;;;;17.58;3.50;;;16.80;99.90;;;;;;5035472;28;20041;-73
2022/10/01 11:39:32;;;;;;;15.38;2.80;;;17.10;99.90;;;;;;5035208;28;20049;-72
2022/10/01 11:42:15;;;;;;;23.17;4.00;;;17.40;99.90;;;;;;5034273;28;20052;-72
2022/10/01 11:44:45;;;;;;;16.27;3.40;;;17.60;99.90;;;;;;5035481;28;20049;-72
2022/10/01 11:47:26;;;;;;;17.40;3.10;;;17.70;99.90;;;;;;5034292;28;20046;-72
2022/10/01 11:49:56;;;;;;;14.57;3.33;;;17.70;99.00;;;;;;5035183;28;20506;-72
2022/10/01 11:52:41;;;;;;;21.45;3.63;;;17.70;98.80;;;;;;5018480;28;20361;-74
2022/10/01 11:58:51;;;;;;;17.63;2.95;;;17.70;98.20;;;;;;5017475;28;20045;-72
2022/10/01 12:01:44;;;;;;;12.00;2.75;;;17.70;98.40;;;;;;5034145;28;20037;-72
2022/10/01 12:04:17;;;;;;;22.30;3.47;;;17.70;97.90;;;;;;5035050;28;20360;-72
2022/10/01 12:06:58;;;;;;;22.52;3.65;;;17.60;97.50;;;;;;5030626;28;20045;-72
2022/10/01 12:09:44;;;;;;;20.08;3.58;;;17.70;98.30;;;;;;5013826;28;20061;-72
2022/10/01 12:12:39;;;;;;;14.15;3.08;;;17.70;98.00;;;;;;5025590;28;20488;-72
2022/10/01 12:15:21;;;;;;;17.33;3.33;;;17.70;97.00;;;;;;4999643;28;20053;-73
2022/10/01 12:18:05;;;;;;;17.98;3.35;;;17.70;97.20;;;;;;5035060;28;20049;-73
2022/10/01 12:20:42;;;;;;;18.30;3.38;;;17.90;97.20;;;;;;5034799;28;20041;-73
2022/10/01 12:23:40;;;;;;;14.95;3.50;;;17.90;96.80;;;;;;5033966;28;20046;-74
2022/10/01 12:26:37;;;;;;;20.63;3.90;;;17.90;96.70;;;;;;5013764;28;20042;-70
2022/10/01 12:29:13;;;;;;;17.00;3.10;;;17.80;96.70;;;;;;4944691;28;20479;-70
2022/10/01 12:32:01;;;;;;;13.15;2.70;;;17.70;96.60;;;;;;5014654;28;20484;-69
2022/10/01 12:34:44;;;;;;;;;;;17.70;96.80;;;;;;5014322;28;20369;-70
2022/10/01 12:37:32;;;;;;;22.23;3.45;;;17.70;96.80;;;;;;4997839;28;19932;-70
2022/10/01 12:40:05;;;;;;;21.08;3.30;;;17.80;96.80;;;;;;4997555;28;20376;-71
2022/10/01 12:43:02;;;;;;;13.93;3.00;;;17.70;96.70;;;;;;4996546;28;20069;-69
2022/10/01 12:45:49;;;;;;;16.92;3.50;;;17.80;96.80;;;;;;5014857;28;20050;-70
2022/10/01 12:48:33;;;;;;;20.60;3.60;;;17.90;97.00;;;;;;4996659;28;20046;-69
2022/10/01 12:51:42;;;;;;;16.52;3.50;;;17.90;97.00;;;;;;5015023;28;20457;-69
2022/10/01 12:54:40;;;;;;;22.20;3.90;;;18.00;96.80;;;;;;4996287;28;20072;-69
2022/10/01 12:57:10;;;;;;;14.23;3.25;;;18.10;96.90;;;;;;5015542;28;20057;-70
2022/10/01 12:59:56;;;;;;;14.98;2.67;;;18.20;96.60;;;;;;5001808;28;20385;-71
2022/10/01 13:02:47;;;;;;;15.63;3.17;;;18.10;96.10;;;;;;5017421;28;20046;-71
2022/10/01 13:05:35;;;;;;;21.92;3.60;;;18.40;95.20;;;;;;5001332;28;20050;-71
2022/10/01 13:08:44;;;;;;;19.15;3.20;;;18.50;95.70;;;;;;5017428;28;20057;-71
2022/10/01 13:11:43;;;;;;;17.15;3.90;;;18.70;95.90;;;;;;4982074;28;20046;-71
2022/10/01 13:14:14;;;;;;;19.23;3.42;;;18.90;95.10;;;;;;5016889;28;20377;-71
2022/10/01 13:16:46;;;;;;;17.92;3.45;;;19.00;94.90;;;;;;5018153;28;20053;-71
2022/10/01 13:19:20;;;;;;;16.98;3.30;;;19.10;95.20;;;;;;5018315;28;20049;-71
2022/10/01 13:21:56;;;;;;;17.33;3.45;;;19.10;94.80;;;;;;5017002;28;20376;-71
2022/10/01 13:24:49;;;;;;;18.92;3.10;;;19.10;94.70;;;;;;5018184;28;20050;-71